Time;durP1;ratioP1;P1;durP2;ratioP2;P2;SDS_P1;SDS_P2;PMS_P1;PMS_P2;Temp;Humidity;BMP_temperature;BMP_pressure;BME280_temperature;BME280_humidity;BME280_pressure;Samples;Min_cycle;Max_cycle;Signal;HPM_P1;HPM_P2
2023/02/26 00:01:15;;;;;;;7.20;6.80;;;-0.20;99.90;;;;;;5012609;28;20180;-64
2023/02/26 00:03:41;;;;;;;7.20;6.90;;;-0.30;99.90;;;;;;5012772;28;20208;-64
2023/02/26 00:06:06;;;;;;;6.70;6.40;;;-0.30;99.90;;;;;;5012633;28;20725;-64
2023/02/26 00:08:32;;;;;;;7.10;6.80;;;-0.20;99.90;;;;;;5012949;28;20250;-64
2023/02/26 00:11:00;;;;;;;7.03;6.73;;;-0.10;99.90;;;;;;5012451;28;20238;-64
2023/02/26 00:13:27;;;;;;;6.90;6.50;;;0.00;99.90;;;;;;5013137;28;20214;-64
2023/02/26 00:15:58;;;;;;;8.90;6.73;;;0.10;99.90;;;;;;5012663;28;20216;-62
2023/02/26 00:18:24;;;;;;;6.73;6.43;;;0.20;99.90;;;;;;5013028;28;20207;-62
2023/02/26 00:20:50;;;;;;;7.97;7.27;;;0.30;99.90;;;;;;5012065;28;20672;-62
2023/02/26 00:23:17;;;;;;;6.90;6.60;;;0.40;99.90;;;;;;5013100;28;20172;-62
2023/02/26 00:25:43;;;;;;;6.83;6.53;;;0.50;99.90;;;;;;5012479;28;20283;-62
2023/02/26 00:28:10;;;;;;;6.67;6.37;;;0.60;99.90;;;;;;5012735;28;20672;-62
2023/02/26 00:30:36;;;;;;;6.90;6.60;;;0.70;99.90;;;;;;5012314;28;20180;-62
2023/02/26 00:33:02;;;;;;;6.73;6.43;;;0.80;99.90;;;;;;5012709;28;20646;-62
2023/02/26 00:35:29;;;;;;;8.27;7.60;;;0.80;99.90;;;;;;5012058;28;20172;-62
2023/02/26 00:38:16;;;;;;;7.23;6.73;;;0.80;99.90;;;;;;5012852;28;20172;-63
2023/02/26 00:40:52;;;;;;;9.47;8.03;;;0.90;99.90;;;;;;5011780;28;20180;-63
2023/02/26 00:43:23;;;;;;;6.80;6.50;;;0.90;99.90;;;;;;5012532;28;20183;-63
2023/02/26 00:46:23;;;;;;;7.30;7.00;;;1.00;99.90;;;;;;5011884;28;20270;-63
2023/02/26 00:49:02;;;;;;;7.00;6.70;;;1.00;99.90;;;;;;5012014;28;20592;-63
2023/02/26 00:51:55;;;;;;;7.97;7.57;;;1.00;99.90;;;;;;5011525;28;20661;-63
2023/02/26 00:54:29;;;;;;;7.37;7.07;;;1.10;99.90;;;;;;5012142;28;20180;-63
2023/02/26 00:56:57;;;;;;;7.30;7.00;;;1.10;99.90;;;;;;5011881;28;20215;-63
2023/02/26 00:59:23;;;;;;;7.80;7.47;;;1.00;99.90;;;;;;5011525;28;20191;-63
2023/02/26 01:01:50;;;;;;;7.87;7.27;;;1.00;99.90;;;;;;5011722;28;20270;-63
2023/02/26 01:04:18;;;;;;;8.00;7.70;;;1.00;99.90;;;;;;5011799;28;20300;-63
2023/02/26 01:06:48;;;;;;;8.03;7.33;;;1.00;99.90;;;;;;5011975;28;20203;-63
2023/02/26 01:09:32;;;;;;;7.90;7.57;;;1.00;99.90;;;;;;5011463;28;20652;-63
2023/02/26 01:12:00;;;;;;;8.57;8.17;;;1.00;99.90;;;;;;5011891;28;20218;-63
2023/02/26 01:14:27;;;;;;;7.97;7.67;;;1.00;99.90;;;;;;5012028;28;20176;-63
2023/02/26 01:17:15;;;;;;;7.77;7.37;;;1.00;99.90;;;;;;5011655;28;20200;-63
2023/02/26 01:20:04;;;;;;;8.23;7.90;;;1.00;99.90;;;;;;5005538;28;20188;-63
2023/02/26 01:22:58;;;;;;;8.07;7.60;;;1.00;99.90;;;;;;5011942;28;20187;-63
2023/02/26 01:25:29;;;;;;;8.20;7.77;;;1.00;99.90;;;;;;5011708;28;20576;-63
2023/02/26 01:27:58;;;;;;;7.80;7.50;;;0.80;99.90;;;;;;5011996;28;20583;-63
2023/02/26 01:30:24;;;;;;;6.50;6.27;;;0.70;99.90;;;;;;5011095;28;20215;-63
2023/02/26 01:33:16;;;;;;;7.07;6.73;;;0.60;99.90;;;;;;5011474;28;20732;-63
2023/02/26 01:35:46;;;;;;;6.50;6.20;;;0.50;99.90;;;;;;5011372;28;20642;-63
2023/02/26 01:38:30;;;;;;;6.97;6.67;;;0.40;99.90;;;;;;5011768;28;20218;-63
2023/02/26 01:41:30;;;;;;;7.63;7.00;;;0.30;99.90;;;;;;5011090;28;20307;-63
2023/02/26 01:44:21;;;;;;;12.80;6.30;;;0.20;99.90;;;;;;5011406;28;20697;-63
2023/02/26 01:47:24;;;;;;;7.90;7.50;;;0.20;99.90;;;;;;5011508;28;20666;-63
2023/02/26 01:49:50;;;;;;;8.27;7.87;;;0.30;99.90;;;;;;5010530;28;20628;-63
2023/02/26 01:52:33;;;;;;;7.13;6.83;;;0.30;99.90;;;;;;5011395;28;20282;-63
2023/02/26 01:54:59;;;;;;;6.80;6.50;;;0.40;99.90;;;;;;5011057;28;20199;-63
2023/02/26 01:57:25;;;;;;;7.50;7.17;;;0.40;99.90;;;;;;5041576;22;20223;-65
2023/02/26 01:59:52;;;;;;;6.90;6.60;;;0.50;99.90;;;;;;5033831;28;20190;-65
2023/02/26 02:02:21;;;;;;;7.23;6.93;;;0.50;99.90;;;;;;5034674;28;20172;-65
2023/02/26 02:04:48;;;;;;;6.73;6.43;;;0.60;99.90;;;;;;5034106;28;20180;-65
2023/02/26 02:07:15;;;;;;;7.07;6.77;;;0.60;52.30;;;;;;5034438;28;20195;-65
2023/02/26 02:09:41;;;;;;;7.60;7.20;;;0.70;99.90;;;;;;5032106;28;20179;-65
2023/02/26 02:12:16;;;;;;;7.03;6.73;;;0.70;1.00;;;;;;5014727;28;20208;-65
2023/02/26 02:15:00;;;;;;;7.43;7.03;;;0.70;1.00;;;;;;5015203;28;20179;-65
2023/02/26 02:17:38;;;;;;;7.57;7.23;;;0.70;1.00;;;;;;5034459;28;20564;-65
2023/02/26 02:20:25;;;;;;;7.50;7.10;;;0.80;99.90;;;;;;5014364;28;20183;-65
2023/02/26 02:23:08;;;;;;;7.40;7.10;;;0.70;99.90;;;;;;5016088;28;20637;-65
2023/02/26 02:26:12;;;;;;;7.07;6.77;;;0.70;99.90;;;;;;5034223;28;20636;-65
2023/02/26 02:29:02;;;;;;;6.00;5.80;;;0.60;99.90;;;;;;5026409;28;20242;-65
2023/02/26 02:31:35;;;;;;;7.93;7.30;;;0.50;99.90;;;;;;5014140;28;20558;-64
2023/02/26 02:34:12;;;;;;;6.30;6.10;;;0.30;99.90;;;;;;5024242;28;20207;-65
2023/02/26 02:36:50;;;;;;;6.57;6.17;;;0.20;99.90;;;;;;5034016;28;20167;-65
2023/02/26 02:39:31;;;;;;;6.83;6.53;;;0.10;1.00;;;;;;5022047;28;20172;-65
2023/02/26 02:42:03;;;;;;;7.57;6.37;;;0.00;1.00;;;;;;5014498;28;20183;-64
2023/02/26 02:44:33;;;;;;;7.43;6.63;;;0.00;7.00;;;;;;5015861;28;20180;-65
2023/02/26 02:47:00;;;;;;;6.70;6.40;;;0.00;1.00;;;;;;5014905;28;20183;-65
2023/02/26 02:49:46;;;;;;;7.07;6.60;;;-0.10;1.00;;;;;;5025314;28;20179;-65
2023/02/26 02:52:25;;;;;;;6.93;6.63;;;-0.20;99.90;;;;;;5032151;28;20566;-65
2023/02/26 02:55:05;;;;;;;7.07;6.77;;;-0.30;20.00;;;;;;5033632;28;20241;-64
2023/02/26 02:57:59;;;;;;;6.60;6.30;;;-0.30;99.90;;;;;;5017727;28;20213;-64
2023/02/26 03:00:26;;;;;;;7.27;6.87;;;-0.40;99.90;;;;;;5013792;28;20223;-64
2023/02/26 03:03:21;;;;;;;6.83;6.53;;;-0.50;99.90;;;;;;5031533;28;20179;-65
2023/02/26 03:05:46;;;;;;;7.27;6.60;;;-0.60;99.90;;;;;;5004345;28;20195;-64
2023/02/26 03:08:19;;;;;;;6.87;6.57;;;-0.60;99.90;;;;;;5013475;28;20565;-64
2023/02/26 03:10:46;;;;;;;7.47;7.17;;;-0.60;99.90;;;;;;5013215;28;20219;-64
2023/02/26 03:13:21;;;;;;;6.67;6.37;;;-0.70;99.90;;;;;;5032646;28;20206;-64
2023/02/26 03:16:07;;;;;;;7.27;6.77;;;-0.70;99.90;;;;;;5032956;28;20178;-64
2023/02/26 03:18:51;;;;;;;7.00;6.70;;;-0.80;99.90;;;;;;5013537;28;20207;-63
2023/02/26 03:21:21;;;;;;;7.23;6.93;;;-0.80;99.90;;;;;;5015933;28;20266;-63
2023/02/26 03:23:53;;;;;;;6.40;6.20;;;-0.90;99.90;;;;;;5025461;28;20646;-64
2023/02/26 03:26:28;;;;;;;7.50;7.10;;;-0.90;99.90;;;;;;5014730;28;20180;-64
2023/02/26 03:29:03;;;;;;;7.40;7.10;;;-1.00;99.90;;;;;;5031872;28;20189;-63
2023/02/26 03:31:34;;;;;;;7.30;6.70;;;-1.00;99.90;;;;;;5028481;28;20469;-64
2023/02/26 03:34:16;;;;;;;7.13;6.83;;;-1.10;99.90;;;;;;5013129;28;20171;-64
2023/02/26 03:36:52;;;;;;;7.20;6.90;;;-1.00;99.90;;;;;;5017671;28;20174;-63
2023/02/26 03:39:43;;;;;;;8.33;7.87;;;-1.10;99.90;;;;;;5028762;28;20176;-63
2023/02/26 03:42:23;;;;;;;7.30;7.00;;;-1.10;99.90;;;;;;5012931;28;20168;-64
2023/02/26 03:44:54;;;;;;;7.10;6.80;;;-1.20;99.90;;;;;;5019948;28;20183;-63
2023/02/26 03:47:21;;;;;;;7.07;6.77;;;-1.20;99.90;;;;;;5032631;28;20261;-64
2023/02/26 03:49:57;;;;;;;7.07;6.77;;;-1.20;99.90;;;;;;5025423;28;20486;-63
2023/02/26 03:52:24;;;;;;;8.03;6.97;;;-1.20;99.90;;;;;;5012815;28;20209;-64
2023/02/26 03:54:57;;;;;;;7.10;6.80;;;-1.20;99.90;;;;;;5018775;28;20675;-63
2023/02/26 03:57:22;;;;;;;7.00;6.70;;;-1.20;99.90;;;;;;5032495;28;20202;-64
2023/02/26 03:59:48;;;;;;;7.37;6.97;;;-1.20;99.90;;;;;;5026007;28;20192;-64
2023/02/26 04:02:24;;;;;;;7.63;7.23;;;-1.20;99.90;;;;;;5012593;28;20172;-63
2023/02/26 04:05:01;;;;;;;11.10;7.20;;;-1.20;99.90;;;;;;5017608;28;20191;-64
2023/02/26 04:07:28;;;;;;;7.80;7.50;;;-1.20;99.90;;;;;;5030549;28;20202;-64
2023/02/26 04:09:54;;;;;;;7.70;7.40;;;-1.20;99.90;;;;;;5026125;28;20552;-64
2023/02/26 04:12:23;;;;;;;7.50;7.20;;;-1.20;99.90;;;;;;5012178;28;20295;-64
2023/02/26 04:14:49;;;;;;;7.20;6.90;;;-1.20;99.90;;;;;;5016986;28;20179;-63
2023/02/26 04:17:15;;;;;;;7.63;7.33;;;-1.20;99.90;;;;;;5031937;28;20210;-64
2023/02/26 04:19:40;;;;;;;7.57;7.27;;;-1.30;99.90;;;;;;5027788;28;20568;-65
2023/02/26 04:22:06;;;;;;;7.63;7.33;;;-1.30;99.90;;;;;;5012165;28;20262;-64
2023/02/26 04:24:32;;;;;;;7.50;7.20;;;-1.30;99.90;;;;;;5013260;28;20187;-64
2023/02/26 04:26:57;;;;;;;7.30;7.00;;;-1.30;99.90;;;;;;5012111;28;20557;-63
2023/02/26 04:29:23;;;;;;;8.43;8.03;;;-1.30;99.90;;;;;;5026802;28;20179;-64
2023/02/26 04:31:49;;;;;;;7.83;7.50;;;-1.30;99.90;;;;;;5031115;28;20196;-64
2023/02/26 04:34:14;;;;;;;9.10;8.70;;;-1.40;99.90;;;;;;5030122;28;20194;-64
2023/02/26 04:36:40;;;;;;;11.03;10.37;;;-1.40;99.90;;;;;;5031727;28;20168;-64
2023/02/26 04:39:05;;;;;;;9.03;8.63;;;-1.50;99.90;;;;;;5019554;28;20234;-65
2023/02/26 04:41:31;;;;;;;8.77;8.37;;;-1.50;99.90;;;;;;5010418;28;20176;-64
2023/02/26 04:43:57;;;;;;;8.83;8.43;;;-1.50;99.90;;;;;;5020334;28;20245;-64
2023/02/26 04:46:22;;;;;;;8.70;8.30;;;-1.60;99.90;;;;;;5031567;28;20167;-64
2023/02/26 04:48:48;;;;;;;9.03;8.63;;;-1.60;99.90;;;;;;5022580;28;20214;-64
2023/02/26 04:51:14;;;;;;;8.43;8.10;;;-1.60;99.90;;;;;;5011428;28;20672;-63
2023/02/26 04:53:39;;;;;;;8.00;7.70;;;-1.70;99.90;;;;;;5018120;28;20188;-64
2023/02/26 04:56:06;;;;;;;8.07;7.70;;;-1.80;99.90;;;;;;5031281;28;20207;-64
2023/02/26 04:58:33;;;;;;;7.50;7.20;;;-1.80;99.90;;;;;;5025657;28;20759;-64
2023/02/26 05:00:59;;;;;;;7.43;7.13;;;-1.80;99.90;;;;;;5014392;28;20656;-64
2023/02/26 05:03:24;;;;;;;7.57;7.20;;;-1.90;99.90;;;;;;5031600;28;20171;-64
2023/02/26 05:05:50;;;;;;;7.37;7.07;;;-1.90;99.90;;;;;;5029259;28;20180;-64
2023/02/26 05:08:15;;;;;;;7.60;7.30;;;-2.00;99.90;;;;;;5011528;28;20685;-64
2023/02/26 05:10:41;;;;;;;7.00;6.70;;;-2.10;99.90;;;;;;5011236;28;20176;-64
2023/02/26 05:13:07;;;;;;;7.30;7.00;;;-2.00;99.90;;;;;;5030887;28;20221;-64
2023/02/26 05:15:32;;;;;;;6.80;6.50;;;-2.00;99.90;;;;;;5031113;28;20171;-64
2023/02/26 05:17:58;;;;;;;8.10;7.70;;;-1.90;99.90;;;;;;5012928;28;20731;-64
2023/02/26 05:20:24;;;;;;;7.33;6.83;;;-1.90;99.90;;;;;;5011108;28;20195;-66
2023/02/26 05:22:49;;;;;;;7.23;6.93;;;-1.90;99.90;;;;;;5027374;28;20215;-64
2023/02/26 05:25:15;;;;;;;7.10;6.80;;;-1.90;99.90;;;;;;5030996;28;20168;-64
2023/02/26 05:27:41;;;;;;;7.77;7.37;;;-1.90;99.90;;;;;;5016174;28;20203;-66
2023/02/26 05:30:08;;;;;;;7.20;6.90;;;-1.90;99.90;;;;;;5022937;28;20262;-64
2023/02/26 05:32:34;;;;;;;7.77;7.37;;;-1.80;99.90;;;;;;5032844;28;20214;-64
2023/02/26 05:35:00;;;;;;;7.37;7.07;;;-1.90;99.90;;;;;;5027595;28;20184;-64
2023/02/26 05:37:25;;;;;;;7.03;6.73;;;-1.90;99.90;;;;;;5029410;28;20718;-64
2023/02/26 05:39:51;;;;;;;7.60;7.30;;;-1.90;99.90;;;;;;5034402;28;20218;-66
2023/02/26 05:42:16;;;;;;;7.50;7.00;;;-1.80;99.90;;;;;;5034963;28;20168;-64
2023/02/26 05:44:42;;;;;;;11.33;7.50;;;-1.80;99.90;;;;;;5035043;28;20617;-63
2023/02/26 05:47:07;;;;;;;7.37;7.07;;;-1.80;99.90;;;;;;5034658;28;20195;-66
2023/02/26 05:49:33;;;;;;;8.00;7.70;;;-1.80;99.90;;;;;;5028992;28;20669;-63
2023/02/26 05:51:59;;;;;;;7.67;7.37;;;-1.80;99.90;;;;;;5014712;28;20199;-63
2023/02/26 05:54:24;;;;;;;7.77;7.47;;;-1.80;99.90;;;;;;5015886;28;20548;-63
2023/02/26 05:56:50;;;;;;;7.67;7.37;;;-1.70;99.90;;;;;;5014625;28;20187;-63
2023/02/26 05:59:16;;;;;;;7.80;7.50;;;-1.70;99.90;;;;;;5015131;28;20251;-66
2023/02/26 06:01:42;;;;;;;8.13;7.73;;;-1.70;99.90;;;;;;5034466;28;20176;-64
2023/02/26 06:04:08;;;;;;;8.70;8.00;;;-1.70;99.90;;;;;;5034383;28;20225;-64
2023/02/26 06:06:34;;;;;;;7.60;7.30;;;-1.70;99.90;;;;;;5032790;28;20621;-64
2023/02/26 06:09:01;;;;;;;8.00;7.70;;;-1.70;99.90;;;;;;5034367;28;20198;-64
2023/02/26 06:11:29;;;;;;;8.00;7.60;;;-1.70;99.90;;;;;;5016500;28;20299;-64
2023/02/26 06:13:55;;;;;;;8.03;7.57;;;-1.70;99.90;;;;;;5014217;28;20607;-64
2023/02/26 06:16:21;;;;;;;8.37;7.90;;;-1.70;99.90;;;;;;5030139;28;20192;-64
2023/02/26 06:18:47;;;;;;;7.47;7.17;;;-1.70;99.90;;;;;;5034021;28;20239;-64
2023/02/26 06:21:13;;;;;;;7.77;7.47;;;-1.70;99.90;;;;;;5019621;28;20172;-64
2023/02/26 06:23:38;;;;;;;7.90;7.53;;;-1.70;99.90;;;;;;5024544;28;20550;-65
2023/02/26 06:26:04;;;;;;;8.53;7.93;;;-1.70;99.90;;;;;;5034102;28;20190;-65
2023/02/26 06:28:30;;;;;;;8.17;7.77;;;-1.80;99.90;;;;;;5025346;28;20199;-65
2023/02/26 06:30:56;;;;;;;7.67;7.37;;;-1.80;99.90;;;;;;5014332;28;20263;-65
2023/02/26 06:33:22;;;;;;;7.63;7.33;;;-1.80;99.90;;;;;;5021037;28;20226;-66
2023/02/26 06:35:48;;;;;;;7.40;7.10;;;-1.80;99.90;;;;;;5033624;28;20199;-65
2023/02/26 06:38:14;;;;;;;9.57;8.83;;;-1.80;99.90;;;;;;5032014;28;20192;-65
2023/02/26 06:40:39;;;;;;;7.63;7.23;;;-1.80;99.90;;;;;;5033588;28;20175;-65
2023/02/26 06:43:05;;;;;;;7.37;7.07;;;-1.80;99.90;;;;;;5027809;28;20180;-65
2023/02/26 06:45:31;;;;;;;7.47;7.07;;;-1.80;99.90;;;;;;5014035;28;20226;-65
2023/02/26 06:47:56;;;;;;;7.67;7.37;;;-1.70;99.90;;;;;;5016929;28;20726;-65
2023/02/26 06:50:22;;;;;;;14.33;7.77;;;-1.70;99.90;;;;;;5033480;28;20254;-65
2023/02/26 06:52:47;;;;;;;8.03;7.73;;;-1.60;99.90;;;;;;5018279;28;20672;-65
2023/02/26 06:55:13;;;;;;;8.13;7.73;;;-1.60;99.90;;;;;;5034105;28;20175;-65
2023/02/26 06:57:39;;;;;;;7.63;7.33;;;-1.60;99.90;;;;;;5024120;28;20207;-63
2023/02/26 07:00:06;;;;;;;7.90;7.57;;;-1.60;99.90;;;;;;5033507;28;20171;-65
2023/02/26 07:02:32;;;;;;;7.77;7.47;;;-1.50;99.90;;;;;;5017611;28;20203;-65
2023/02/26 07:04:58;;;;;;;8.40;8.10;;;-1.50;99.90;;;;;;5013890;28;20176;-65
2023/02/26 07:07:24;;;;;;;9.00;8.60;;;-1.50;99.90;;;;;;5027651;28;20294;-65
2023/02/26 07:09:49;;;;;;;8.80;8.23;;;-1.50;99.90;;;;;;5032183;28;20429;-65
2023/02/26 07:12:15;;;;;;;7.87;7.53;;;-1.40;99.90;;;;;;5020690;28;20207;-65
2023/02/26 07:14:42;;;;;;;7.67;7.37;;;-1.30;99.90;;;;;;5013286;28;20172;-65
2023/02/26 07:17:08;;;;;;;8.00;7.60;;;-1.20;99.90;;;;;;5014581;28;20203;-65
2023/02/26 07:19:33;;;;;;;7.40;7.10;;;-1.20;99.90;;;;;;5011627;28;20179;-65
2023/02/26 07:21:59;;;;;;;7.40;7.10;;;-1.10;99.90;;;;;;5021668;28;20175;-65
2023/02/26 07:24:25;;;;;;;7.33;7.03;;;-1.00;99.90;;;;;;5033072;28;20175;-67
2023/02/26 07:26:50;;;;;;;7.10;6.80;;;-0.90;99.90;;;;;;5031129;28;20199;-65
2023/02/26 07:29:16;;;;;;;7.63;7.33;;;-0.80;99.90;;;;;;5033023;28;20227;-65
2023/02/26 07:31:42;;;;;;;9.13;7.20;;;-0.60;99.90;;;;;;5026112;28;20225;-65
2023/02/26 07:34:07;;;;;;;6.90;6.60;;;-0.30;99.90;;;;;;5013190;28;20378;-65
2023/02/26 07:36:33;;;;;;;5.93;5.73;;;0.10;99.90;;;;;;5015911;28;20555;-65
2023/02/26 07:38:59;;;;;;;7.40;7.00;;;0.50;99.90;;;;;;5032938;28;20184;-64
2023/02/26 07:41:24;;;;;;;7.23;6.87;;;0.80;99.90;;;;;;5030981;28;20533;-65
2023/02/26 07:43:50;;;;;;;7.13;6.77;;;1.10;99.90;;;;;;5012884;28;20176;-65
2023/02/26 07:46:15;;;;;;;6.93;6.63;;;1.40;99.90;;;;;;5014020;28;20173;-65
2023/02/26 07:48:41;;;;;;;6.37;5.97;;;1.60;99.90;;;;;;5012610;28;20192;-65
2023/02/26 07:51:07;;;;;;;6.13;5.93;;;1.90;99.90;;;;;;5027553;28;20226;-64
2023/02/26 07:53:33;;;;;;;6.70;6.20;;;2.00;99.90;;;;;;5032259;28;20203;-64
2023/02/26 07:55:59;;;;;;;6.00;5.70;;;2.10;99.90;;;;;;5017878;28;20176;-64
2023/02/26 07:58:25;;;;;;;5.87;5.57;;;2.30;99.90;;;;;;5013185;28;20203;-65
2023/02/26 08:00:51;;;;;;;6.37;6.07;;;2.40;99.90;;;;;;5023816;28;20340;-65
2023/02/26 08:03:17;;;;;;;5.97;5.77;;;2.50;99.90;;;;;;5032870;28;20584;-65
2023/02/26 08:05:43;;;;;;;6.63;6.33;;;2.70;99.90;;;;;;5023018;28;20187;-64
2023/02/26 08:08:09;;;;;;;6.70;6.40;;;2.90;99.90;;;;;;5012641;28;20200;-65
2023/02/26 08:10:35;;;;;;;7.53;7.07;;;3.20;99.90;;;;;;5019420;28;20317;-65
2023/02/26 08:13:00;;;;;;;6.17;5.87;;;3.20;99.90;;;;;;5030638;28;20203;-65
2023/02/26 08:15:26;;;;;;;5.47;5.27;;;3.30;99.90;;;;;;5024235;28;20184;-65
2023/02/26 08:17:52;;;;;;;6.40;5.90;;;3.50;99.90;;;;;;5025064;28;20203;-65
2023/02/26 08:20:18;;;;;;;7.30;6.73;;;3.50;99.90;;;;;;5013471;28;20187;-65
2023/02/26 08:22:44;;;;;;;6.30;6.00;;;3.50;99.90;;;;;;5021401;28;20184;-65
2023/02/26 08:25:09;;;;;;;5.90;5.60;;;3.60;99.90;;;;;;5024533;28;20241;-66
2023/02/26 08:27:35;;;;;;;5.40;5.10;;;3.70;99.90;;;;;;5031976;28;20672;-65
2023/02/26 08:30:01;;;;;;;5.80;5.50;;;4.00;99.90;;;;;;5013154;28;20642;-66
2023/02/26 08:32:27;;;;;;;8.70;6.27;;;4.20;99.90;;;;;;5012569;28;20204;-65
2023/02/26 08:34:54;;;;;;;5.83;5.53;;;4.50;99.90;;;;;;5010894;28;20755;-65
2023/02/26 08:37:22;;;;;;;6.03;5.17;;;4.60;99.90;;;;;;5012315;28;20219;-66
2023/02/26 08:39:47;;;;;;;5.40;5.00;;;4.80;99.90;;;;;;5012293;28;20190;-65
2023/02/26 08:42:15;;;;;;;5.03;4.73;;;5.00;99.90;;;;;;5025481;28;20175;-66
2023/02/26 08:44:41;;;;;;;5.30;4.90;;;5.20;99.90;;;;;;5012221;28;20164;-65
2023/02/26 08:47:07;;;;;;;4.70;4.50;;;5.50;99.90;;;;;;5020196;28;20202;-65
2023/02/26 08:49:33;;;;;;;5.27;4.87;;;5.50;99.90;;;;;;5031284;28;20187;-65
2023/02/26 08:51:59;;;;;;;5.33;4.90;;;5.40;99.90;;;;;;5016808;28;20216;-65
2023/02/26 08:54:24;;;;;;;5.13;4.93;;;5.40;99.90;;;;;;5030235;28;20171;-64
2023/02/26 08:56:52;;;;;;;5.50;5.20;;;5.40;99.90;;;;;;5023441;28;20176;-64
2023/02/26 08:59:18;;;;;;;4.87;4.67;;;5.50;99.90;;;;;;5014547;28;20243;-65
2023/02/26 09:01:44;;;;;;;5.23;4.70;;;5.60;99.90;;;;;;5014810;28;20267;-65
2023/02/26 09:04:09;;;;;;;5.30;5.00;;;5.60;99.90;;;;;;5012643;28;20624;-64
2023/02/26 09:06:35;;;;;;;4.90;4.70;;;5.60;99.90;;;;;;5026371;28;20211;-64
2023/02/26 09:09:01;;;;;;;5.23;4.73;;;5.70;99.90;;;;;;5014370;28;20192;-64
2023/02/26 09:11:29;;;;;;;4.80;4.60;;;5.80;99.90;;;;;;5013253;28;20190;-64
2023/02/26 09:13:55;;;;;;;5.53;5.23;;;5.60;99.90;;;;;;5030309;28;20179;-64
2023/02/26 09:16:21;;;;;;;5.20;4.90;;;5.50;99.90;;;;;;5020909;28;20175;-64
2023/02/26 09:18:46;;;;;;;5.73;5.13;;;5.60;99.90;;;;;;5031781;28;20502;-64
2023/02/26 09:21:12;;;;;;;5.13;4.83;;;5.90;99.90;;;;;;5016485;28;20239;-64
2023/02/26 09:23:37;;;;;;;5.20;4.77;;;5.90;99.90;;;;;;5012189;28;20172;-64
2023/02/26 09:26:03;;;;;;;5.27;5.07;;;6.20;99.90;;;;;;5013671;28;20168;-64
2023/02/26 09:28:29;;;;;;;5.10;4.80;;;6.10;99.90;;;;;;5031732;28;20196;-64
2023/02/26 09:30:54;;;;;;;4.90;4.70;;;5.70;99.90;;;;;;5029268;28;20174;-63
2023/02/26 09:33:21;;;;;;;5.37;5.07;;;5.60;99.90;;;;;;5029574;28;20692;-65
2023/02/26 09:35:48;;;;;;;5.53;5.13;;;5.50;99.90;;;;;;5019747;28;20211;-64
2023/02/26 09:38:14;;;;;;;4.90;4.70;;;5.30;99.90;;;;;;5013764;28;20202;-64
2023/02/26 09:40:53;;;;;;;5.13;4.93;;;5.60;99.90;;;;;;5027904;28;20183;-64
2023/02/26 09:43:41;;;;;;;5.00;4.70;;;6.10;99.90;;;;;;5013658;28;20536;-64
2023/02/26 09:46:32;;;;;;;5.20;4.90;;;6.60;99.90;;;;;;5012040;28;20179;-65
2023/02/26 09:49:25;;;;;;;5.00;4.80;;;6.80;99.90;;;;;;5024632;28;20674;-64
2023/02/26 09:51:55;;;;;;;4.90;4.60;;;6.90;99.90;;;;;;5031370;28;20195;-64
2023/02/26 09:54:24;;;;;;;5.77;5.27;;;6.90;99.90;;;;;;5015989;28;20238;-64
2023/02/26 09:56:51;;;;;;;5.70;5.40;;;6.80;99.90;;;;;;5011959;28;20238;-64
2023/02/26 09:59:18;;;;;;;4.93;4.73;;;6.40;99.90;;;;;;5025667;28;20186;-64
2023/02/26 10:02:15;;;;;;;5.07;4.87;;;5.90;99.90;;;;;;5031628;28;20175;-64
2023/02/26 10:04:40;;;;;;;5.10;4.90;;;5.60;99.90;;;;;;5030219;28;20179;-64
2023/02/26 10:07:35;;;;;;;5.00;4.80;;;4.90;99.90;;;;;;5031981;28;20633;-63
2023/02/26 10:10:15;;;;;;;5.40;5.20;;;4.30;99.90;;;;;;5012516;28;20183;-64
2023/02/26 10:12:43;;;;;;;7.03;6.63;;;3.90;99.90;;;;;;5012181;28;20250;-64
2023/02/26 10:15:12;;;;;;;7.57;7.27;;;3.60;99.90;;;;;;5023596;28;20191;-64
2023/02/26 10:18:04;;;;;;;7.50;7.20;;;3.40;99.90;;;;;;5035614;28;20218;-64
2023/02/26 10:21:04;;;;;;;7.07;6.77;;;3.40;99.90;;;;;;5018657;28;20255;-64
2023/02/26 10:23:55;;;;;;;7.37;6.97;;;3.40;99.90;;;;;;5021091;28;20239;-63
2023/02/26 10:26:42;;;;;;;5.83;5.43;;;3.20;99.90;;;;;;5015779;28;20176;-64
2023/02/26 10:29:20;;;;;;;6.30;6.07;;;3.20;99.90;;;;;;5015281;28;20234;-63
2023/02/26 10:32:04;;;;;;;6.57;6.27;;;3.40;99.90;;;;;;5025674;28;20227;-64
2023/02/26 10:34:33;;;;;;;7.20;6.90;;;3.50;99.90;;;;;;5021039;28;20246;-64
2023/02/26 10:37:03;;;;;;;6.67;6.37;;;3.50;99.90;;;;;;5035022;28;20254;-64
2023/02/26 10:39:40;;;;;;;6.90;6.50;;;3.40;99.90;;;;;;5031369;28;20164;-64
2023/02/26 10:42:14;;;;;;;6.37;6.07;;;3.30;99.90;;;;;;5014691;28;20653;-64
2023/02/26 10:44:46;;;;;;;6.37;5.97;;;3.20;99.90;;;;;;5049913;28;20189;-64
2023/02/26 10:47:28;;;;;;;6.77;6.47;;;3.40;99.90;;;;;;5033858;28;20198;-64
2023/02/26 10:50:02;;;;;;;6.57;6.27;;;3.90;99.90;;;;;;5028836;28;20646;-64
2023/02/26 10:52:31;;;;;;;6.50;6.20;;;4.00;99.90;;;;;;5014865;28;20196;-64
2023/02/26 10:55:24;;;;;;;6.47;6.20;;;3.90;99.90;;;;;;5015290;28;20181;-63
2023/02/26 10:58:13;;;;;;;7.40;6.87;;;3.60;99.90;;;;;;5014402;28;20595;-63
2023/02/26 11:00:47;;;;;;;6.47;6.17;;;3.30;99.90;;;;;;5031684;28;20543;-64
2023/02/26 11:03:19;;;;;;;6.10;5.80;;;3.20;99.90;;;;;;5034106;28;20171;-63
2023/02/26 11:05:46;;;;;;;5.80;5.57;;;3.30;99.90;;;;;;5016146;28;20184;-64
2023/02/26 11:08:24;;;;;;;6.03;5.83;;;3.20;99.90;;;;;;5014236;28;20198;-63
2023/02/26 11:10:52;;;;;;;5.80;5.60;;;3.20;99.90;;;;;;5031307;28;20207;-63
2023/02/26 11:13:20;;;;;;;6.73;6.30;;;3.20;99.90;;;;;;5033263;28;20213;-64
2023/02/26 11:15:50;;;;;;;7.07;6.77;;;3.20;99.90;;;;;;5033368;28;20548;-63
2023/02/26 11:18:22;;;;;;;6.40;6.10;;;3.70;99.90;;;;;;5033643;28;20179;-64
2023/02/26 11:20:48;;;;;;;6.00;5.80;;;3.90;99.90;;;;;;5029033;28;20179;-64
2023/02/26 11:23:18;;;;;;;8.63;6.20;;;3.90;99.90;;;;;;5032641;28;20183;-64
2023/02/26 11:25:45;;;;;;;6.57;6.27;;;3.90;99.90;;;;;;5032870;28;20245;-63
2023/02/26 11:28:24;;;;;;;6.30;6.00;;;3.80;99.90;;;;;;5033657;28;20199;-64
2023/02/26 11:30:53;;;;;;;5.73;5.43;;;4.10;99.90;;;;;;5031335;28;20182;-64
2023/02/26 11:33:33;;;;;;;5.37;5.07;;;4.70;99.90;;;;;;5033843;28;20286;-63
2023/02/26 11:36:01;;;;;;;5.20;4.90;;;5.30;99.90;;;;;;5017440;28;20703;-63
2023/02/26 11:38:28;;;;;;;5.10;4.90;;;6.00;99.90;;;;;;5013755;28;20180;-64
2023/02/26 11:40:56;;;;;;;5.73;5.33;;;6.40;99.90;;;;;;5014027;28;20573;-64
2023/02/26 11:43:24;;;;;;;5.23;4.93;;;6.40;99.90;;;;;;5013493;28;20176;-64
2023/02/26 11:46:00;;;;;;;5.30;5.10;;;6.80;99.90;;;;;;5028405;28;20230;-64
2023/02/26 11:48:35;;;;;;;5.53;5.23;;;6.90;99.90;;;;;;5030967;28;20263;-64
2023/02/26 11:51:02;;;;;;;4.83;4.63;;;7.30;99.90;;;;;;5031488;28;20175;-64
2023/02/26 11:53:34;;;;;;;4.57;4.37;;;7.60;98.70;;;;;;5044213;28;20198;-64
2023/02/26 11:56:11;;;;;;;4.93;4.73;;;7.80;97.60;;;;;;5052910;28;20171;-65
2023/02/26 11:58:42;;;;;;;4.90;4.60;;;7.80;97.50;;;;;;5035859;28;20203;-65
2023/02/26 12:01:11;;;;;;;4.87;4.67;;;7.90;97.90;;;;;;5032815;28;20531;-64
2023/02/26 12:03:39;;;;;;;5.97;5.57;;;8.00;95.80;;;;;;5018936;28;20685;-64
2023/02/26 12:06:06;;;;;;;4.93;4.73;;;8.00;97.20;;;;;;5013282;28;20238;-64
2023/02/26 12:08:38;;;;;;;4.90;4.70;;;8.00;96.30;;;;;;5013138;28;20644;-64
2023/02/26 12:11:42;;;;;;;5.00;4.60;;;7.90;95.30;;;;;;5012693;28;20173;-64
2023/02/26 12:14:32;;;;;;;4.60;4.40;;;7.80;96.60;;;;;;5012955;28;20175;-64
2023/02/26 12:17:10;;;;;;;4.63;4.43;;;7.70;94.20;;;;;;5012719;28;20590;-64
2023/02/26 12:19:59;;;;;;;5.00;4.60;;;7.80;94.60;;;;;;5012591;28;20634;-64
2023/02/26 12:23:01;;;;;;;4.60;4.40;;;7.90;94.50;;;;;;5014532;28;20171;-64
2023/02/26 12:26:00;;;;;;;5.03;4.63;;;8.00;94.10;;;;;;5035699;28;20213;-64
2023/02/26 12:28:50;;;;;;;4.70;4.40;;;8.00;92.80;;;;;;5040308;28;20281;-65
2023/02/26 12:31:45;;;;;;;4.70;4.40;;;8.00;94.10;;;;;;5031907;28;20672;-64
2023/02/26 12:34:35;;;;;;;4.67;4.37;;;8.30;95.00;;;;;;5026105;28;20191;-64
2023/02/26 12:37:23;;;;;;;4.40;4.20;;;8.60;91.70;;;;;;5030299;28;20176;-64
2023/02/26 12:40:07;;;;;;;7.13;6.83;;;8.70;91.80;;;;;;5031165;28;20513;-64
2023/02/26 12:43:22;;;;;;;4.40;4.20;;;8.50;92.60;;;;;;5010527;28;20242;-64
2023/02/26 12:46:06;;;;;;;4.53;4.33;;;8.50;93.20;;;;;;5017986;28;20176;-64
2023/02/26 12:48:51;;;;;;;4.70;4.50;;;8.90;92.00;;;;;;5030514;28;20204;-65
2023/02/26 12:51:40;;;;;;;5.00;4.70;;;8.70;93.10;;;;;;5021490;28;20188;-64
2023/02/26 12:54:15;;;;;;;5.00;4.80;;;7.80;90.70;;;;;;5011989;28;20581;-64
2023/02/26 12:57:05;;;;;;;5.20;5.00;;;7.20;90.70;;;;;;5022865;28;20205;-65
2023/02/26 12:59:53;;;;;;;5.13;4.93;;;6.80;90.80;;;;;;5029857;28;20195;-65
2023/02/26 13:02:40;;;;;;;5.33;5.00;;;6.50;90.60;;;;;;5014682;28;20196;-64
2023/02/26 13:05:31;;;;;;;5.20;5.00;;;6.00;91.00;;;;;;5010634;28;20211;-65
2023/02/26 13:07:59;;;;;;;5.00;4.80;;;5.60;91.90;;;;;;5008438;28;20206;-64
2023/02/26 13:10:51;;;;;;;5.40;4.97;;;5.50;91.50;;;;;;5030157;28;20183;-64
2023/02/26 13:13:46;;;;;;;4.70;4.50;;;5.90;90.70;;;;;;5029766;28;20273;-64
2023/02/26 13:16:29;;;;;;;5.20;4.80;;;6.70;91.40;;;;;;5026413;28;20180;-64
2023/02/26 13:19:07;;;;;;;4.83;4.63;;;7.30;90.40;;;;;;5018987;28;20199;-64